Time;durP1;ratioP1;P1;durP2;ratioP2;P2;SDS_P1;SDS_P2;PMS_P1;PMS_P2;Temp;Humidity;BMP_temperature;BMP_pressure;BME280_temperature;BME280_humidity;BME280_pressure;Samples;Min_cycle;Max_cycle;Signal;HPM_P1;HPM_P2
2023/03/15 00:00:44;;;;;;;3.03;1.95;;;;;;;12.76;93.08;99095.41;5029229;28;20041;-72
2023/03/15 00:03:10;;;;;;;3.78;2.50;;;;;;;12.64;93.58;99094.13;5029691;28;20029;-72
2023/03/15 00:05:36;;;;;;;3.45;2.10;;;;;;;12.63;94.34;99105.06;5001435;28;20057;-72
2023/03/15 00:08:01;;;;;;;3.38;2.33;;;;;;;12.61;93.88;99083.72;5029509;28;20072;-73
2023/03/15 00:10:28;;;;;;;4.32;2.65;;;;;;;12.67;94.21;99095.63;5024969;28;20052;-73
2023/03/15 00:12:54;;;;;;;5.18;3.75;;;;;;;12.58;93.64;99097.50;5023580;28;20122;-72
2023/03/15 00:15:19;;;;;;;9.73;4.43;;;;;;;12.37;94.49;99093.78;5026956;28;20049;-72
2023/03/15 00:17:45;;;;;;;9.23;4.35;;;;;;;12.25;95.57;99092.50;5018315;28;20029;-72
2023/03/15 00:20:13;;;;;;;8.38;4.65;;;;;;;12.34;93.42;99094.13;5026435;28;20063;-73
2023/03/15 00:22:39;;;;;;;6.35;4.40;;;;;;;12.23;93.69;99089.16;5022367;28;20029;-72
2023/03/15 00:25:05;;;;;;;6.47;4.70;;;;;;;12.18;93.03;99094.19;5022539;28;20060;-72
2023/03/15 00:27:30;;;;;;;7.43;4.38;;;;;;;12.15;93.35;99095.38;5024253;28;20029;-72
2023/03/15 00:29:56;;;;;;;6.72;4.68;;;;;;;12.00;93.33;99091.78;5024430;28;20036;-72
2023/03/15 00:32:21;;;;;;;6.75;4.65;;;;;;;11.98;93.24;99101.00;5019080;28;20053;-72
2023/03/15 00:34:47;;;;;;;7.60;4.32;;;;;;;11.94;92.88;99099.69;5028130;28;20049;-72
2023/03/15 00:37:18;;;;;;;9.45;5.45;;;;;;;11.87;93.56;99106.75;5022234;28;20494;-72
2023/03/15 00:39:45;;;;;;;11.35;5.00;;;;;;;12.03;92.11;99106.69;5028309;28;20467;-72
2023/03/15 00:42:14;;;;;;;5.75;4.47;;;;;;;11.90;92.42;99101.84;5025434;28;20486;-72
2023/03/15 00:44:43;;;;;;;6.63;4.57;;;;;;;11.92;91.23;99105.22;5019606;28;20364;-72
2023/03/15 00:47:13;;;;;;;4.40;3.70;;;;;;;11.84;91.78;99099.03;5016454;28;20037;-71
2023/03/15 00:49:40;;;;;;;4.38;3.70;;;;;;;11.86;90.28;99111.28;5018578;28;20479;-71
2023/03/15 00:52:06;;;;;;;5.38;3.45;;;;;;;11.81;89.38;99102.91;5024587;28;20461;-71
2023/03/15 00:54:35;;;;;;;4.97;3.75;;;;;;;11.78;88.71;99095.19;5026050;28;20076;-71
2023/03/15 00:57:01;;;;;;;3.97;3.08;;;;;;;11.76;87.81;99099.03;5027705;28;20043;-71
2023/03/15 00:59:34;;;;;;;5.38;3.13;;;;;;;11.73;87.46;99094.84;5024755;28;20083;-71
2023/03/15 01:02:01;;;;;;;5.38;3.60;;;;;;;11.79;86.05;99086.13;5027448;28;20025;-64
2023/03/15 01:04:27;;;;;;;4.13;3.53;;;;;;;11.67;86.64;99087.47;5024561;28;20029;-64
2023/03/15 01:06:53;;;;;;;3.97;2.88;;;;;;;11.72;86.04;99079.75;5024834;28;20048;-63
2023/03/15 01:09:18;;;;;;;6.35;4.35;;;;;;;11.72;86.79;99095.03;5018082;28;20093;-64
2023/03/15 01:11:43;;;;;;;5.53;3.85;;;;;;;11.83;86.24;99092.00;5025254;28;20506;-63
2023/03/15 01:14:09;;;;;;;5.88;3.63;;;;;;;11.79;86.85;99079.91;5024601;28;20021;-63
2023/03/15 01:16:35;;;;;;;5.07;3.88;;;;;;;11.82;86.13;99080.41;5027747;28;20104;-63
2023/03/15 01:19:01;;;;;;;5.60;4.32;;;;;;;11.77;86.86;99079.25;5028258;28;20038;-63
2023/03/15 01:21:26;;;;;;;4.65;3.90;;;;;;;11.62;88.31;99078.28;5027500;28;20056;-63
2023/03/15 01:23:52;;;;;;;6.75;4.53;;;;;;;11.49;88.92;99068.03;5021897;28;20037;-64
2023/03/15 01:26:18;;;;;;;5.10;4.05;;;;;;;11.54;89.08;99077.25;5024968;28;20094;-64
2023/03/15 01:28:44;;;;;;;4.97;4.35;;;;;;;11.49;88.36;99071.53;5024917;28;20030;-64
2023/03/15 01:31:19;;;;;;;5.57;3.92;;;;;;;11.55;88.35;99083.47;5022183;28;20514;-64
2023/03/15 01:33:44;;;;;;;7.00;3.90;;;;;;;11.66;84.96;99080.44;5022351;28;20137;-63
2023/03/15 01:36:11;;;;;;;5.10;3.95;;;;;;;11.49;85.72;99087.66;5027515;28;20188;-64
2023/03/15 01:38:36;;;;;;;4.13;3.42;;;;;;;11.32;86.57;99063.72;5027367;28;20056;-64
2023/03/15 01:41:02;;;;;;;4.28;3.45;;;;;;;11.36;85.85;99068.53;5018518;28;20030;-64
2023/03/15 01:43:33;;;;;;;3.55;3.03;;;;;;;11.39;84.64;99084.31;5020397;28;20021;-63
2023/03/15 01:45:58;;;;;;;6.30;3.10;;;;;;;11.36;84.56;99083.84;5027875;28;20025;-71
2023/03/15 01:48:43;;;;;;;4.30;2.85;;;;;;;11.23;84.71;99072.78;5027295;28;20071;-70
2023/03/15 01:51:16;;;;;;;3.33;2.60;;;;;;;11.28;83.07;99071.25;5025885;28;20021;-71
2023/03/15 01:53:46;;;;;;;2.45;2.25;;;;;;;11.20;83.11;99071.28;5023382;28;20460;-71
2023/03/15 01:56:12;;;;;;;3.60;2.63;;;;;;;11.30;81.48;99082.66;5025615;28;20025;-71
2023/03/15 01:58:40;;;;;;;5.43;2.70;;;;;;;11.23;81.16;99070.91;5024102;28;20460;-70
2023/03/15 02:01:07;;;;;;;2.78;1.92;;;;;;;11.18;80.67;99054.50;5026962;28;20037;-70
2023/03/15 02:03:45;;;;;;;5.72;2.63;;;;;;;11.19;80.47;99080.31;5027275;28;20071;-71
2023/03/15 02:06:16;;;;;;;2.03;1.83;;;;;;;11.10;80.99;99081.31;5024929;28;20026;-71
2023/03/15 02:08:45;;;;;;;2.28;1.98;;;;;;;11.06;80.91;99079.16;5014392;28;20045;-71
2023/03/15 02:11:12;;;;;;;2.42;2.13;;;;;;;11.24;78.15;99077.13;5012690;28;20925;-71
2023/03/15 02:13:38;;;;;;;2.15;1.95;;;;;;;11.11;78.27;99080.34;5024093;28;20325;-70
2023/03/15 02:16:05;;;;;;;2.45;1.83;;;;;;;11.16;77.86;99077.97;5026640;28;20053;-70
2023/03/15 02:18:34;;;;;;;1.95;1.75;;;;;;;11.22;76.80;99082.66;5021702;28;20025;-71
2023/03/15 02:21:29;;;;;;;2.33;1.83;;;;;;;11.08;77.30;99075.31;5016433;28;20030;-71
2023/03/15 02:24:16;;;;;;;3.03;2.10;;;;;;;11.11;76.99;99084.84;5014351;28;20047;-71
2023/03/15 02:26:51;;;;;;;2.30;2.10;;;;;;;11.05;76.73;99074.78;5021649;28;20066;-71
2023/03/15 02:29:17;;;;;;;2.70;2.10;;;;;;;10.96;77.52;99082.00;5024351;28;20033;-71
2023/03/15 02:31:43;;;;;;;2.13;1.92;;;;;;;11.01;76.30;99078.81;5012852;28;20128;-71
2023/03/15 02:34:08;;;;;;;2.45;2.10;;;;;;;10.90;77.20;99071.09;5027870;28;20506;-69
2023/03/15 02:36:35;;;;;;;2.92;1.80;;;;;;;10.92;76.51;99077.13;5027033;28;20113;-71
2023/03/15 02:39:11;;;;;;;2.13;1.95;;;;;;;10.93;75.28;99054.69;5030149;28;20033;-71
2023/03/15 02:41:43;;;;;;;2.60;2.40;;;;;;;10.90;75.62;99076.47;5022576;28;20037;-71
2023/03/15 02:44:23;;;;;;;2.10;1.70;;;;;;;10.78;76.70;99084.00;5029302;28;20053;-71
2023/03/15 02:46:51;;;;;;;2.03;1.83;;;;;;;10.72;76.83;99087.34;5021208;28;20037;-71
2023/03/15 02:49:20;;;;;;;3.30;1.70;;;;;;;10.74;76.18;99076.47;5030150;28;20049;-70
2023/03/15 02:51:45;;;;;;;2.45;2.20;;;;;;;10.69;76.13;99079.63;5028049;28;20033;-70
2023/03/15 02:54:11;;;;;;;3.58;2.05;;;;;;;10.83;75.48;99088.84;5029210;28;20029;-71
2023/03/15 02:56:36;;;;;;;1.75;1.65;;;;;;;10.83;75.15;99087.00;5018963;28;20121;-70
2023/03/15 02:59:02;;;;;;;4.68;1.70;;;;;;;10.70;75.79;99086.66;5003063;28;20053;-71
2023/03/15 03:01:27;;;;;;;2.60;1.73;;;;;;;10.66;76.35;99092.53;5019482;28;20075;-70
2023/03/15 03:03:53;;;;;;;2.35;2.13;;;;;;;10.62;76.28;99091.19;5023233;28;20037;-71
2023/03/15 03:06:18;;;;;;;2.38;1.67;;;;;;;10.63;75.32;99080.28;5029895;28;20021;-71
2023/03/15 03:08:45;;;;;;;2.10;1.88;;;;;;;10.73;74.46;99078.28;5030455;28;20021;-64
2023/03/15 03:11:13;;;;;;;3.28;2.30;;;;;;;10.87;73.37;99093.72;5026410;28;20068;-64
2023/03/15 03:13:39;;;;;;;1.80;1.50;;;;;;;10.75;74.78;99086.16;5023038;28;20025;-63
2023/03/15 03:16:05;;;;;;;3.15;1.75;;;;;;;10.74;74.97;99090.69;5026243;28;20029;-63
2023/03/15 03:18:34;;;;;;;2.42;2.08;;;;;;;10.59;75.21;99084.31;5027028;28;20479;-63
2023/03/15 03:21:04;;;;;;;3.75;1.95;;;;;;;10.64;75.67;99100.72;5029404;28;20562;-63
2023/03/15 03:23:32;;;;;;;2.97;2.13;;;;;;;10.65;75.16;99104.25;5034083;28;20036;-64
2023/03/15 03:25:58;;;;;;;2.60;2.25;;;;;;;10.59;75.87;99110.28;5034635;28;20112;-63
2023/03/15 03:28:26;;;;;;;2.88;2.10;;;;;;;10.63;74.98;99115.16;5023836;28;20136;-64
2023/03/15 03:30:53;;;;;;;2.53;2.03;;;;;;;10.62;74.73;99109.94;5029630;28;20041;-63
2023/03/15 03:33:18;;;;;;;3.05;1.88;;;;;;;10.65;73.61;99102.44;5015147;28;20044;-63
2023/03/15 03:35:44;;;;;;;2.38;1.83;;;;;;;10.68;73.91;99114.66;5033490;28;20425;-71
2023/03/15 03:38:10;;;;;;;1.98;1.73;;;;;;;10.55;74.26;99101.72;5023765;28;20025;-70
2023/03/15 03:40:37;;;;;;;3.88;1.83;;;;;;;10.56;74.50;99102.56;5023121;28;20556;-71
2023/03/15 03:43:02;;;;;;;4.82;1.95;;;;;;;10.57;74.34;99107.75;5025727;28;20026;-71
2023/03/15 03:45:28;;;;;;;2.53;1.98;;;;;;;10.57;74.50;99102.38;5022982;28;20045;-71
2023/03/15 03:47:53;;;;;;;3.45;2.03;;;;;;;10.53;75.21;99111.78;5019263;28;20033;-71
2023/03/15 03:50:19;;;;;;;4.07;2.30;;;;;;;10.63;75.36;99104.41;5026133;28;20041;-71
2023/03/15 03:52:45;;;;;;;4.35;2.15;;;;;;;10.56;77.13;99114.13;5026867;28;20037;-70
2023/03/15 03:55:14;;;;;;;4.40;1.92;;;;;;;10.54;80.00;99108.06;5023548;28;20130;-71
2023/03/15 03:57:40;;;;;;;4.30;1.90;;;;;;;10.47;80.01;99108.88;5009212;28;20104;-71
2023/03/15 04:00:08;;;;;;;3.10;1.88;;;;;;;10.28;82.35;99096.63;5029597;28;20041;-71
2023/03/15 04:02:34;;;;;;;5.68;2.47;;;;;;;10.29;84.16;99114.34;5014864;28;20506;-72
2023/03/15 04:05:00;;;;;;;2.92;2.00;;;;;;;10.21;84.41;99109.00;5026166;28;20483;-73
2023/03/15 04:07:26;;;;;;;3.33;2.42;;;;;;;10.21;85.13;99113.50;5029791;28;20146;-73
2023/03/15 04:09:52;;;;;;;3.90;2.10;;;;;;;10.11;85.59;99097.56;5029564;28;20039;-65
2023/03/15 04:12:17;;;;;;;2.78;2.00;;;;;;;10.12;86.56;99101.09;5027044;28;20036;-65
2023/03/15 04:14:43;;;;;;;2.65;2.03;;;;;;;10.10;86.27;99098.56;5023555;28;20029;-65
2023/03/15 04:17:08;;;;;;;2.92;1.85;;;;;;;10.08;86.90;99095.22;5026475;28;20034;-65
2023/03/15 04:19:34;;;;;;;4.50;2.13;;;;;;;9.94;87.80;99082.41;5025401;28;20025;-75
2023/03/15 04:22:05;;;;;;;4.35;2.22;;;;;;;10.15;87.02;99098.06;5015705;28;20029;-76
2023/03/15 04:24:33;;;;;;;4.30;2.42;;;;;;;10.02;88.30;99100.31;5027408;28;20032;-75
2023/03/15 04:26:59;;;;;;;3.55;2.53;;;;;;;10.04;88.65;99091.16;5027040;28;20067;-75
2023/03/15 04:29:24;;;;;;;4.72;2.38;;;;;;;9.96;89.49;99088.41;5015746;28;20505;-75
2023/03/15 04:31:50;;;;;;;2.85;2.20;;;;;;;9.88;89.73;99101.78;5022466;28;20128;-75
2023/03/15 04:34:15;;;;;;;3.08;2.22;;;;;;;9.86;89.98;99092.25;5025673;28;20042;-75
2023/03/15 04:36:41;;;;;;;3.55;2.35;;;;;;;9.89;90.33;99107.97;5020236;28;20396;-74
2023/03/15 04:39:07;;;;;;;3.00;2.63;;;;;;;9.89;91.03;99102.59;5028735;28;20040;-74
2023/03/15 04:41:35;;;;;;;3.25;2.45;;;;;;;9.79;91.28;99096.53;5026833;28;20021;-75
2023/03/15 04:44:04;;;;;;;2.95;2.35;;;;;;;9.70;91.60;99084.13;5018975;28;20585;-75
2023/03/15 04:46:31;;;;;;;3.42;2.75;;;;;;;9.72;92.50;99099.03;5024238;28;20022;-75
2023/03/15 04:48:57;;;;;;;4.32;2.40;;;;;;;9.77;92.86;99093.19;5025973;28;20581;-75
2023/03/15 04:51:22;;;;;;;2.83;2.42;;;;;;;9.63;92.88;99093.75;5031604;28;20025;-75
2023/03/15 04:53:47;;;;;;;3.47;2.80;;;;;;;9.70;92.98;99098.31;5031308;28;20033;-75
2023/03/15 04:56:13;;;;;;;4.07;2.58;;;;;;;9.57;93.91;99094.41;5000825;28;20530;-75
2023/03/15 04:58:39;;;;;;;3.75;2.70;;;;;;;9.63;93.75;99109.81;5017025;28;20041;-76
2023/03/15 05:01:04;;;;;;;2.70;2.30;;;;;;;9.57;94.02;99113.16;5031572;28;20072;-75
2023/03/15 05:03:30;;;;;;;3.83;2.75;;;;;;;9.58;94.32;99113.00;5025274;28;20026;-75
2023/03/15 05:05:55;;;;;;;3.40;3.10;;;;;;;9.51;94.92;99119.13;5033021;28;20075;-75
2023/03/15 05:08:21;;;;;;;4.55;2.83;;;;;;;9.47;94.96;99121.28;5029972;28;20035;-75
2023/03/15 05:10:47;;;;;;;3.58;2.95;;;;;;;9.52;94.76;99110.09;5023508;28;20037;-75
2023/03/15 05:13:12;;;;;;;4.72;3.03;;;;;;;9.49;94.73;99123.78;5028035;28;20021;-75
2023/03/15 05:15:38;;;;;;;5.60;3.08;;;;;;;9.51;94.77;99130.66;5028055;28;20056;-75
2023/03/15 05:18:03;;;;;;;4.28;3.10;;;;;;;9.45;95.15;99120.59;5025484;28;20698;-75
2023/03/15 05:20:29;;;;;;;3.30;3.00;;;;;;;9.57;93.72;99122.00;5026745;28;20017;-75
2023/03/15 05:22:54;;;;;;;3.70;2.72;;;;;;;9.53;93.63;99120.66;5008517;28;20036;-75
2023/03/15 05:25:20;;;;;;;3.80;2.95;;;;;;;9.48;94.43;99136.31;5024346;28;20025;-75
2023/03/15 05:27:45;;;;;;;3.58;3.13;;;;;;;9.43;94.99;99141.31;5028633;28;20549;-75
2023/03/15 05:30:13;;;;;;;5.50;3.40;;;;;;;9.51;94.49;99148.56;5023493;28;20477;-75
2023/03/15 05:32:38;;;;;;;4.53;3.05;;;;;;;9.49;93.92;99138.03;5028776;28;20108;-76
2023/03/15 05:35:06;;;;;;;5.22;3.10;;;;;;;9.47;94.83;99144.50;5024494;28;20051;-76
2023/03/15 05:37:32;;;;;;;3.92;3.25;;;;;;;9.49;95.25;99143.38;5026212;28;20112;-76
2023/03/15 05:39:58;;;;;;;6.05;3.42;;;;;;;9.36;96.18;99152.78;5028685;28;20096;-75
2023/03/15 05:42:28;;;;;;;3.10;2.72;;;;;;;9.61;94.19;99162.69;5019421;28;20026;-74
2023/03/15 05:44:54;;;;;;;4.53;2.97;;;;;;;9.46;95.16;99161.56;5026283;28;20051;-74
2023/03/15 05:47:21;;;;;;;4.95;2.67;;;;;;;9.37;95.07;99147.28;5024417;28;20519;-75
2023/03/15 05:49:46;;;;;;;4.53;2.75;;;;;;;9.46;94.08;99158.88;5024601;28;20033;-65
2023/03/15 05:52:12;;;;;;;4.45;2.85;;;;;;;9.27;95.30;99138.50;5026456;28;20087;-65
2023/03/15 05:54:38;;;;;;;3.35;2.92;;;;;;;9.31;95.61;99158.59;5025143;28;20111;-75
2023/03/15 05:57:03;;;;;;;3.65;2.95;;;;;;;9.27;96.39;99155.41;5028275;28;20114;-74
2023/03/15 05:59:29;;;;;;;3.95;2.97;;;;;;;9.22;96.69;99157.69;5028532;28;20022;-74
2023/03/15 06:01:55;;;;;;;3.60;2.35;;;;;;;9.33;95.45;99154.78;5022560;28;20026;-74
2023/03/15 06:04:21;;;;;;;4.25;2.58;;;;;;;9.19;96.38;99152.66;5023752;28;20030;-65
2023/03/15 06:06:47;;;;;;;5.57;2.78;;;;;;;9.24;95.98;99155.72;5021280;28;20037;-65
2023/03/15 06:09:12;;;;;;;5.43;2.92;;;;;;;9.17;96.41;99141.28;5022461;28;20045;-66
2023/03/15 06:11:38;;;;;;;3.78;3.10;;;;;;;9.21;96.26;99152.50;5020040;28;20056;-66
2023/03/15 06:14:03;;;;;;;4.70;3.25;;;;;;;9.20;97.53;99161.53;5024904;28;20155;-66
2023/03/15 06:16:29;;;;;;;4.25;3.85;;;;;;;9.25;97.10;99161.91;5019104;28;20061;-66
2023/03/15 06:18:54;;;;;;;5.00;3.60;;;;;;;9.32;95.55;99152.25;5025219;28;20053;-75
2023/03/15 06:21:19;;;;;;;4.63;3.60;;;;;;;9.23;95.93;99151.34;5024504;28;20053;-75
2023/03/15 06:23:45;;;;;;;5.38;3.50;;;;;;;9.22;96.33;99162.19;5021007;28;20073;-75
2023/03/15 06:26:10;;;;;;;5.22;3.30;;;;;;;9.18;96.32;99166.19;5018981;28;20037;-75
2023/03/15 06:28:36;;;;;;;3.17;2.60;;;;;;;9.16;95.61;99168.19;5021080;28;20033;-75
2023/03/15 06:31:09;;;;;;;5.57;2.53;;;;;;;9.12;94.93;99148.94;5027189;28;20034;-75
2023/03/15 06:33:35;;;;;;;4.87;3.30;;;;;;;9.38;93.60;99162.34;5020063;28;20065;-75
2023/03/15 06:36:00;;;;;;;4.43;3.00;;;;;;;9.29;92.74;99165.97;5026401;28;20876;-75
2023/03/15 06:38:26;;;;;;;4.28;3.28;;;;;;;9.28;92.11;99167.78;5016082;28;20554;-75
2023/03/15 06:40:51;;;;;;;3.95;2.40;;;;;;;9.18;92.62;99175.06;5015118;28;20464;-75
2023/03/15 06:43:19;;;;;;;3.15;2.13;;;;;;;9.18;90.91;99171.53;5014555;28;20029;-75
2023/03/15 06:45:45;;;;;;;5.00;3.00;;;;;;;9.10;91.59;99183.00;5012511;28;20046;-66
2023/03/15 06:48:12;;;;;;;4.30;2.75;;;;;;;9.03;89.29;99159.72;5022705;28;20136;-66
2023/03/15 06:50:39;;;;;;;4.15;3.20;;;;;;;8.86;88.59;99149.84;5025166;28;20483;-65
2023/03/15 06:53:04;;;;;;;3.20;2.63;;;;;;;8.93;87.68;99164.28;4994799;28;20471;-66
2023/03/15 06:55:30;;;;;;;2.90;2.53;;;;;;;8.90;86.23;99172.63;5024310;28;20144;-66
2023/03/15 06:57:55;;;;;;;3.83;2.38;;;;;;;8.94;87.21;99190.03;5015632;28;20030;-67
2023/03/15 07:00:21;;;;;;;2.72;2.25;;;;;;;8.88;87.93;99193.31;5013193;28;20049;-66
2023/03/15 07:02:47;;;;;;;3.33;2.70;;;;;;;8.65;87.58;99182.19;5021920;28;20038;-66
2023/03/15 07:05:12;;;;;;;3.90;2.80;;;;;;;8.61;89.10;99194.19;5021611;28;20107;-66
2023/03/15 07:07:38;;;;;;;2.55;2.35;;;;;;;8.68;85.01;99181.06;5025256;28;20029;-65
2023/03/15 07:10:04;;;;;;;5.28;2.67;;;;;;;8.68;87.25;99205.13;5004518;28;20045;-65
2023/03/15 07:12:29;;;;;;;4.10;3.33;;;;;;;8.55;85.39;99184.09;5023129;28;20041;-65
2023/03/15 07:14:54;;;;;;;6.90;4.95;;;;;;;8.58;87.00;99217.72;5018871;28;20026;-65
2023/03/15 07:17:20;;;;;;;9.77;5.05;;;;;;;8.51;87.57;99214.78;5022999;28;20022;-65
2023/03/15 07:19:45;;;;;;;5.78;4.03;;;;;;;8.48;88.35;99215.06;5024976;28;20059;-66
2023/03/15 07:22:11;;;;;;;4.70;3.10;;;;;;;8.42;86.27;99196.13;5024910;28;20077;-65
2023/03/15 07:24:36;;;;;;;4.63;3.60;;;;;;;8.28;86.73;99172.56;5026061;28;20060;-65
2023/03/15 07:27:02;;;;;;;7.05;4.05;;;;;;;8.56;86.86;99214.34;5023858;28;20038;-66
2023/03/15 07:29:27;;;;;;;7.07;4.07;;;;;;;8.55;86.04;99218.00;5028407;28;20040;-75
2023/03/15 07:31:53;;;;;;;7.80;4.68;;;;;;;8.39;85.60;99183.88;5023118;28;20079;-76
2023/03/15 07:34:18;;;;;;;8.60;5.00;;;;;;;8.58;84.93;99220.38;5029180;28;20053;-76
2023/03/15 07:36:44;;;;;;;9.10;4.90;;;;;;;8.47;86.98;99224.09;5025223;28;20041;-75
2023/03/15 07:39:09;;;;;;;6.90;4.30;;;;;;;8.46;86.70;99225.09;5020720;28;20037;-76
2023/03/15 07:41:35;;;;;;;5.65;4.10;;;;;;;8.42;86.06;99228.19;5028485;28;20111;-76
2023/03/15 07:44:01;;;;;;;5.20;3.55;;;;;;;8.33;87.96;99232.59;5021318;28;20036;-76
2023/03/15 07:46:26;;;;;;;5.50;3.88;;;;;;;8.47;86.28;99240.13;5027910;28;20044;-76
2023/03/15 07:48:52;;;;;;;5.05;3.80;;;;;;;8.39;86.85;99226.63;5029105;28;20376;-76
2023/03/15 07:51:17;;;;;;;5.00;3.90;;;;;;;8.46;86.79;99242.94;5029292;28;20531;-76
2023/03/15 07:53:42;;;;;;;4.32;3.85;;;;;;;8.49;87.37;99247.97;5027341;28;20483;-76
2023/03/15 07:56:08;;;;;;;4.28;3.53;;;;;;;8.43;88.39;99246.75;5028280;28;20031;-77
2023/03/15 07:58:33;;;;;;;4.93;4.18;;;;;;;8.38;88.52;99256.16;5032919;28;20041;-76
2023/03/15 08:00:59;;;;;;;5.05;4.05;;;;;;;8.52;88.19;99250.38;5032235;28;20025;-74
2023/03/15 08:03:25;;;;;;;5.38;3.70;;;;;;;8.42;88.57;99268.25;5029402;28;20064;-75
2023/03/15 08:05:51;;;;;;;5.47;4.47;;;;;;;8.36;89.78;99256.34;5034242;28;20066;-75
2023/03/15 08:08:17;;;;;;;6.32;4.38;;;;;;;8.49;89.72;99264.88;5025029;28;20045;-76
2023/03/15 08:10:43;;;;;;;6.03;5.40;;;;;;;8.42;89.99;99268.25;5007889;28;20523;-75
2023/03/15 08:13:10;;;;;;;5.47;4.90;;;;;;;8.40;90.86;99278.25;5032649;28;20476;-76
2023/03/15 08:15:35;;;;;;;8.35;5.82;;;;;;;8.39;90.93;99277.41;5028985;28;20017;-76
2023/03/15 08:18:00;;;;;;;6.25;5.38;;;;;;;8.52;90.48;99274.41;5026494;28;20139;-75
2023/03/15 08:20:26;;;;;;;7.47;5.55;;;;;;;8.51;91.20;99283.41;5026837;28;20033;-76
2023/03/15 08:22:52;;;;;;;7.40;6.40;;;;;;;8.47;91.34;99282.00;5018545;28;20052;-76
2023/03/15 08:25:20;;;;;;;9.05;6.78;;;;;;;8.49;91.38;99280.03;5001010;28;20123;-75
2023/03/15 08:27:47;;;;;;;7.35;6.25;;;;;;;8.50;93.02;99295.94;5029079;28;20781;-76
2023/03/15 08:30:14;;;;;;;9.00;6.60;;;;;;;8.50;92.83;99295.06;5031565;28;20045;-75
2023/03/15 08:32:44;;;;;;;9.95;7.30;;;;;;;8.52;92.86;99291.25;5029670;28;20025;-74
2023/03/15 08:35:11;;;;;;;8.30;7.30;;;;;;;8.50;93.92;99311.97;5028344;28;20082;-75
2023/03/15 08:37:38;;;;;;;9.15;7.35;;;;;;;8.33;95.25;99295.84;5024440;28;20179;-75
2023/03/15 08:40:08;;;;;;;8.50;7.18;;;;;;;8.39;95.25;99313.97;5024226;28;20491;-75
2023/03/15 08:42:37;;;;;;;8.48;7.05;;;;;;;8.32;93.99;99303.00;5027148;28;20026;-75
2023/03/15 08:45:06;;;;;;;9.65;6.78;;;;;;;8.31;95.37;99321.84;5031260;28;20045;-74
2023/03/15 08:47:35;;;;;;;9.45;7.45;;;;;;;8.31;96.33;99317.38;5028551;28;20037;-75
2023/03/15 08:50:09;;;;;;;11.65;8.20;;;;;;;8.36;95.95;99320.47;5028212;28;20037;-75
2023/03/15 08:52:35;;;;;;;11.52;9.02;;;;;;;8.20;96.17;99312.16;5023597;28;20044;-75
2023/03/15 08:55:00;;;;;;;19.33;9.88;;;;;;;8.24;96.58;99320.75;5024053;28;20037;-75
2023/03/15 08:57:27;;;;;;;20.52;12.05;;;;;;;8.22;96.63;99328.09;5016697;28;20034;-66
2023/03/15 08:59:54;;;;;;;18.33;10.68;;;;;;;8.27;95.91;99341.84;5013384;28;20542;-66
2023/03/15 09:02:21;;;;;;;14.65;9.15;;;;;;;8.15;96.59;99316.22;5021353;28;20467;-66
2023/03/15 09:04:46;;;;;;;16.38;8.90;;;;;;;8.20;96.82;99354.91;5003275;28;20053;-67
2023/03/15 09:07:12;;;;;;;12.32;9.77;;;;;;;8.24;97.02;99366.16;5017353;28;20562;-66
2023/03/15 09:09:37;;;;;;;11.52;8.68;;;;;;;8.20;97.25;99351.38;5006841;28;20029;-67
2023/03/15 09:12:03;;;;;;;11.85;9.40;;;;;;;8.17;98.17;99362.34;5025092;28;20052;-66
2023/03/15 09:14:29;;;;;;;11.65;8.85;;;;;;;8.25;97.45;99367.84;5009371;28;20021;-67
2023/03/15 09:17:02;;;;;;;12.55;9.27;;;;;;;8.31;97.82;99369.94;5030372;28;20091;-66
2023/03/15 09:19:27;;;;;;;12.00;8.95;;;;;;;8.16;98.36;99358.00;5012746;28;20048;-66
2023/03/15 09:21:52;;;;;;;10.20;8.95;;;;;;;8.21;99.30;99380.63;5027261;28;20037;-66
2023/03/15 09:24:18;;;;;;;13.48;9.05;;;;;;;8.32;98.93;99382.31;5025305;28;20018;-66
2023/03/15 09:26:43;;;;;;;13.90;8.48;;;;;;;8.30;100.00;99381.63;5016206;28;20047;-66
2023/03/15 09:29:09;;;;;;;11.05;9.05;;;;;;;8.18;100.00;99375.56;5026538;28;20026;-66
2023/03/15 09:31:34;;;;;;;10.13;8.48;;;;;;;7.99;100.00;99354.22;5025373;28;20045;-66
2023/03/15 09:34:00;;;;;;;13.20;9.68;;;;;;;8.09;100.00;99378.25;5024670;28;20522;-67
2023/03/15 09:36:25;;;;;;;9.98;8.25;;;;;;;8.08;100.00;99385.41;5016150;28;20056;-67
2023/03/15 09:38:51;;;;;;;11.90;8.43;;;;;;;8.17;100.00;99397.06;5019570;28;20100;-66
2023/03/15 09:41:46;;;;;;;10.77;8.25;;;;;;;8.23;100.00;99388.53;5015759;28;20112;-66
2023/03/15 09:44:19;;;;;;;13.48;8.25;;;;;;;8.16;100.00;99406.91;5017941;28;20017;-66
2023/03/15 09:47:03;;;;;;;9.90;7.28;;;;;;;8.23;100.00;99416.09;5015119;28;20120;-66
2023/03/15 09:50:00;;;;;;;10.35;8.10;;;;;;;8.20;100.00;99426.16;4997294;28;20021;-67
2023/03/15 09:52:43;;;;;;;9.88;6.82;;;;;;;8.23;100.00;99417.91;5012750;28;20029;-67
2023/03/15 09:55:15;;;;;;;8.25;6.55;;;;;;;8.27;100.00;99427.31;5004334;28;20106;-67
2023/03/15 09:57:49;;;;;;;9.82;7.10;;;;;;;8.19;100.00;99435.16;5008344;28;20053;-67
2023/03/15 10:00:19;;;;;;;8.50;6.88;;;;;;;7.96;100.00;99409.72;5006721;28;20041;-66
2023/03/15 10:02:59;;;;;;;9.80;6.45;;;;;;;8.02;100.00;99433.19;5006199;28;20041;-66
2023/03/15 10:05:39;;;;;;;8.45;6.47;;;;;;;8.02;100.00;99420.69;5015164;28;20108;-67
2023/03/15 10:08:16;;;;;;;9.85;6.10;;;;;;;8.09;100.00;99445.00;5008893;28;20507;-66
2023/03/15 10:10:59;;;;;;;8.82;6.10;;;;;;;8.08;100.00;99449.50;5015813;28;20041;-66
2023/03/15 10:13:51;;;;;;;9.05;6.05;;;;;;;8.05;100.00;99457.78;5007175;28;20495;-67
2023/03/15 10:16:43;;;;;;;8.10;6.22;;;;;;;8.02;100.00;99459.88;5014053;28;20037;-75
2023/03/15 10:19:14;;;;;;;8.88;5.95;;;;;;;7.96;100.00;99465.81;5006026;28;20451;-75
2023/03/15 10:21:58;;;;;;;7.03;5.75;;;;;;;7.89;100.00;99459.31;5018547;28;20017;-75
2023/03/15 10:24:29;;;;;;;12.70;6.53;;;;;;;7.94;100.00;99460.59;5011368;28;21193;-75
2023/03/15 10:26:58;;;;;;;10.27;6.43;;;;;;;7.95;100.00;99472.09;5020801;28;20037;-75
2023/03/15 10:29:25;;;;;;;9.38;6.07;;;;;;;7.89;100.00;99456.63;5016772;28;20055;-73
2023/03/15 10:31:53;;;;;;;7.50;5.68;;;;;;;8.00;100.00;99467.19;5024040;28;20037;-75
2023/03/15 10:34:18;;;;;;;10.50;6.30;;;;;;;8.05;100.00;99478.28;5022525;28;20753;-75
2023/03/15 10:36:49;;;;;;;10.88;6.50;;;;;;;7.98;100.00;99480.69;5013236;28;20026;-75
2023/03/15 10:39:14;;;;;;;7.22;5.82;;;;;;;7.96;100.00;99465.81;5015811;28;20033;-74
2023/03/15 10:41:42;;;;;;;9.27;6.18;;;;;;;8.07;100.00;99500.38;5018468;28;20048;-73
2023/03/15 10:44:22;;;;;;;8.63;5.18;;;;;;;8.07;100.00;99501.22;5018101;28;20044;-74
2023/03/15 10:47:12;;;;;;;10.23;5.68;;;;;;;8.12;100.00;99498.97;5019895;28;20084;-74
2023/03/15 10:49:40;;;;;;;10.07;5.85;;;;;;;8.10;100.00;99506.25;5019965;28;20048;-74
2023/03/15 10:52:23;;;;;;;10.68;5.60;;;;;;;8.06;100.00;99496.84;5013987;28;20025;-74
2023/03/15 10:54:50;;;;;;;8.85;5.03;;;;;;;8.12;100.00;99492.75;5012876;28;20065;-75
2023/03/15 10:57:18;;;;;;;7.13;5.05;;;;;;;8.20;100.00;99500.94;5015127;28;20484;-75
2023/03/15 11:00:19;;;;;;;8.82;4.78;;;;;;;8.19;100.00;99488.59;5015706;28;20480;-74
2023/03/15 11:03:01;;;;;;;5.63;4.18;;;;;;;8.24;100.00;99494.38;4991003;28;20029;-74
2023/03/15 11:05:40;;;;;;;5.07;3.75;;;;;;;8.23;100.00;99490.88;5024801;28;20549;-75
2023/03/15 11:08:13;;;;;;;6.63;3.03;;;;;;;8.24;100.00;99500.56;5019489;28;20095;-75
2023/03/15 11:10:39;;;;;;;2.97;1.92;;;;;;;8.21;100.00;99475.91;5019052;28;20025;-66
2023/03/15 11:13:09;;;;;;;3.97;2.20;;;;;;;8.33;100.00;99489.03;5022033;28;20041;-67
2023/03/15 11:15:35;;;;;;;2.28;1.75;;;;;;;8.36;100.00;99495.91;4999889;28;20022;-67
2023/03/15 11:18:01;;;;;;;3.47;2.20;;;;;;;8.33;100.00;99469.47;5016272;28;20129;-67
2023/03/15 11:20:30;;;;;;;6.30;2.15;;;;;;;8.38;100.00;99470.75;5019677;28;20104;-66
2023/03/15 11:22:57;;;;;;;2.05;1.52;;;;;;;8.53;100.00;99490.72;5016102;28;20041;-66
2023/03/15 11:25:30;;;;;;;2.15;1.65;;;;;;;8.58;100.00;99493.78;5013868;28;20093;-67
2023/03/15 11:27:55;;;;;;;2.25;1.40;;;;;;;8.45;100.00;99463.84;4989714;28;20049;-67
2023/03/15 11:30:27;;;;;;;4.35;1.73;;;;;;;8.55;100.00;99478.03;5011079;28;20042;-66
2023/03/15 11:32:54;;;;;;;1.80;1.50;;;;;;;8.66;100.00;99499.28;5015684;28;20045;-67
2023/03/15 11:35:32;;;;;;;1.65;1.52;;;;;;;8.68;100.00;99491.94;5016230;28;20026;-67
2023/03/15 11:38:05;;;;;;;2.75;1.60;;;;;;;8.84;100.00;99497.53;5017896;28;20522;-67
2023/03/15 11:40:41;;;;;;;2.10;1.30;;;;;;;8.74;100.00;99474.50;5012224;28;20022;-67